createdAt,value
2019-05-25T00:00:10.937Z,67.13
2019-05-25T00:02:40.377Z,67.04
2019-05-25T00:05:10.027Z,67.25
2019-05-25T00:07:39.423Z,67.31
2019-05-25T00:10:09.078Z,67.23
2019-05-25T00:12:38.571Z,67.22
2019-05-25T00:15:08.435Z,67.29
2019-05-25T00:17:38.155Z,67.48
2019-05-25T00:20:08.023Z,67.52
2019-05-25T00:22:37.423Z,67.44
2019-05-25T00:25:08.376Z,67.93
2019-05-25T00:27:37.772Z,68.23
2019-05-25T00:30:07.889Z,68.29
2019-05-25T00:32:37.378Z,68.11
2019-05-25T00:35:07.415Z,68.14
2019-05-25T00:37:38.900Z,68.02
2019-05-25T00:40:09.665Z,68.09
2019-05-25T00:42:39.061Z,68.08
2019-05-25T00:45:09.086Z,68.00
2019-05-25T00:47:38.497Z,67.85
2019-05-25T00:50:08.428Z,67.82
2019-05-25T00:52:37.840Z,67.91
2019-05-25T00:55:07.892Z,68.31
2019-05-25T00:57:37.302Z,68.48
2019-05-25T01:00:07.738Z,68.74
2019-05-25T01:02:38.814Z,69.02
2019-05-25T01:05:08.991Z,68.99
2019-05-25T01:07:38.502Z,69.36
2019-05-25T01:10:08.345Z,69.30
2019-05-25T01:12:37.752Z,69.48
2019-05-25T01:15:08.185Z,69.50
2019-05-25T01:17:37.666Z,69.74
2019-05-25T01:20:11.274Z,70.19
2019-05-25T01:22:40.682Z,70.67
2019-05-25T01:25:11.017Z,70.83
2019-05-25T01:27:40.437Z,70.34
2019-05-25T01:30:11.550Z,70.08
2019-05-25T01:32:40.973Z,70.13
2019-05-25T01:35:10.803Z,70.06
2019-05-25T01:37:40.309Z,70.00
2019-05-25T01:40:10.341Z,70.04
2019-05-25T01:42:39.767Z,70.42
2019-05-25T01:45:10.301Z,70.41
2019-05-25T01:47:39.729Z,70.43
2019-05-25T01:50:09.401Z,70.23
2019-05-25T01:52:38.851Z,69.98
2019-05-25T01:55:08.693Z,70.03
2019-05-25T01:57:38.103Z,69.86
2019-05-25T02:00:09.022Z,69.32
2019-05-25T02:02:38.509Z,69.30
2019-05-25T02:05:08.161Z,69.68
2019-05-25T02:07:37.643Z,69.88
2019-05-25T02:10:08.279Z,69.75
2019-05-25T02:12:37.712Z,69.82
2019-05-25T02:15:08.647Z,70.27
2019-05-25T02:17:38.193Z,70.64
2019-05-25T02:20:09.107Z,71.29
2019-05-25T02:22:39.511Z,71.51
2019-05-25T02:25:17.995Z,71.57
2019-05-25T02:27:42.731Z,71.70
2019-05-25T02:30:12.877Z,71.78
2019-05-25T02:32:42.388Z,72.00
2019-05-25T02:35:14.836Z,72.56
2019-05-25T02:37:44.223Z,73.01
2019-05-25T02:40:13.772Z,73.28
2019-05-25T02:42:44.509Z,73.77
2019-05-25T02:45:14.261Z,73.80
2019-05-25T02:47:43.656Z,74.02
2019-05-25T02:50:13.403Z,73.83
2019-05-25T02:52:42.793Z,73.82
2019-05-25T02:55:13.140Z,73.90
2019-05-25T02:57:42.529Z,74.22
2019-05-25T03:00:13.664Z,73.88
2019-05-25T03:02:43.156Z,74.11
2019-05-25T03:05:15.919Z,74.10
2019-05-25T03:07:49.368Z,74.35
2019-05-25T03:10:18.971Z,74.45
2019-05-25T03:12:48.807Z,74.51
2019-05-25T03:15:18.364Z,74.18
2019-05-25T03:17:47.762Z,74.12
2019-05-25T03:20:17.177Z,73.95
2019-05-25T03:22:46.579Z,73.92
2019-05-25T03:25:17.132Z,73.71
2019-05-25T03:27:46.530Z,73.71
2019-05-25T03:30:17.714Z,73.61
2019-05-25T03:32:48.097Z,73.37
2019-05-25T03:35:17.667Z,73.43
2019-05-25T03:37:47.062Z,73.73
2019-05-25T03:40:16.728Z,73.96
2019-05-25T03:42:46.112Z,73.42
2019-05-25T03:45:17.156Z,72.99
2019-05-25T03:47:46.554Z,73.53
2019-05-25T03:50:16.037Z,73.94
2019-05-25T03:52:45.429Z,74.38
2019-05-25T03:55:15.183Z,74.31
2019-05-25T03:57:44.947Z,74.50
2019-05-25T04:00:15.300Z,75.01
2019-05-25T04:02:44.864Z,74.93
2019-05-25T04:05:14.380Z,74.83
2019-05-25T04:07:45.643Z,74.93
2019-05-25T04:10:15.125Z,75.11
2019-05-25T04:12:44.587Z,75.22
2019-05-25T04:15:14.167Z,75.46
2019-05-25T04:17:43.570Z,75.55
2019-05-25T04:20:12.983Z,75.13
2019-05-25T04:22:42.381Z,75.04
2019-05-25T04:25:12.063Z,75.15
2019-05-25T04:27:41.507Z,75.21
2019-05-25T04:30:11.645Z,75.12
2019-05-25T04:32:41.049Z,75.00
2019-05-25T04:35:10.709Z,75.03
2019-05-25T04:37:40.109Z,74.66
2019-05-25T04:40:09.772Z,74.58
2019-05-25T04:42:41.721Z,73.72
2019-05-25T04:45:11.202Z,73.55
2019-05-25T04:47:40.607Z,72.95
2019-05-25T04:50:10.173Z,72.64
2019-05-25T04:52:41.475Z,72.46
2019-05-25T04:55:11.190Z,72.09
2019-05-25T04:57:40.596Z,70.73
2019-05-25T05:00:10.404Z,70.51
2019-05-25T05:02:39.814Z,69.83
2019-05-25T05:05:09.470Z,68.88
2019-05-25T05:07:38.863Z,68.10
2019-05-25T05:10:08.822Z,65.66
2019-05-25T05:12:38.247Z,64.96
2019-05-25T05:15:08.009Z,63.47
2019-05-25T05:17:37.474Z,62.51
2019-05-25T05:20:10.148Z,62.19
2019-05-25T05:22:39.542Z,62.64
2019-05-25T05:25:10.082Z,63.15
2019-05-25T05:27:40.158Z,63.92
2019-05-25T05:30:10.207Z,64.42
2019-05-25T05:32:39.744Z,65.10
2019-05-25T05:35:09.560Z,65.33
2019-05-25T05:37:41.760Z,65.05
2019-05-25T05:40:13.012Z,64.26
2019-05-25T05:42:45.205Z,64.06
2019-05-25T05:45:14.969Z,64.73
2019-05-25T05:47:46.796Z,64.78
2019-05-25T05:50:16.536Z,64.24
2019-05-25T05:52:48.473Z,63.45
2019-05-25T05:55:20.942Z,63.44
2019-05-25T05:57:50.411Z,62.14
2019-05-25T06:00:20.641Z,62.26
2019-05-25T06:02:50.140Z,61.68
2019-05-25T06:05:19.533Z,61.42
2019-05-25T06:07:48.950Z,61.03
2019-05-25T06:10:18.679Z,60.98
2019-05-25T06:12:48.154Z,61.20
2019-05-25T06:15:17.886Z,61.09
2019-05-25T06:17:47.369Z,60.03
2019-05-25T06:20:17.011Z,59.75
2019-05-25T06:22:46.423Z,59.68
2019-05-25T06:25:15.818Z,58.71
2019-05-25T06:27:45.237Z,57.32
2019-05-25T06:30:15.072Z,55.81
2019-05-25T06:32:44.498Z,53.03
2019-05-25T06:35:14.438Z,52.85
2019-05-25T06:37:43.852Z,52.56
2019-05-25T06:40:14.796Z,52.41
2019-05-25T06:42:44.249Z,50.76
2019-05-25T06:45:15.897Z,50.54
2019-05-25T06:47:45.327Z,50.71
2019-05-25T06:50:15.161Z,51.04
2019-05-25T06:52:44.629Z,51.10
2019-05-25T06:55:14.436Z,51.14
2019-05-25T06:57:44.097Z,51.28
2019-05-25T07:00:15.500Z,50.63
2019-05-25T07:02:44.915Z,50.52
2019-05-25T07:05:14.553Z,50.63
2019-05-25T07:07:43.975Z,50.17
2019-05-25T07:10:13.715Z,48.14
2019-05-25T07:12:43.125Z,45.74
2019-05-25T07:15:13.271Z,43.59
2019-05-25T07:17:42.669Z,42.97
2019-05-25T07:20:12.422Z,42.90
2019-05-25T07:22:41.845Z,42.48
2019-05-25T07:25:12.997Z,41.35
2019-05-25T07:27:57.856Z,41.56
2019-05-25T07:30:14.982Z,42.02
2019-05-25T07:32:44.361Z,41.19
2019-05-25T07:35:14.516Z,41.25
2019-05-25T07:37:43.914Z,39.84
2019-05-25T07:40:14.069Z,39.37
2019-05-25T07:42:43.457Z,39.28
2019-05-25T07:45:14.681Z,38.57
2019-05-25T07:47:44.170Z,37.19
2019-05-25T07:50:15.115Z,36.75
2019-05-25T07:52:44.504Z,37.09
2019-05-25T07:55:14.093Z,35.73
2019-05-25T07:57:43.512Z,35.25
2019-05-25T08:00:14.022Z,34.07
2019-05-25T08:02:43.418Z,32.66
2019-05-25T08:05:13.198Z,32.38
2019-05-25T08:07:42.593Z,33.11
2019-05-25T08:10:13.643Z,34.07
2019-05-25T08:12:43.033Z,32.62
2019-05-25T08:15:12.809Z,33.29
2019-05-25T08:17:42.216Z,34.14
2019-05-25T08:20:12.066Z,34.23
2019-05-25T08:22:41.463Z,34.76
2019-05-25T08:25:11.513Z,34.61
2019-05-25T08:27:40.911Z,33.58
2019-05-25T08:30:12.153Z,34.43
2019-05-25T08:32:41.562Z,32.88
2019-05-25T08:35:11.411Z,32.22
2019-05-25T08:37:40.818Z,31.88
2019-05-25T08:40:11.763Z,32.74
2019-05-25T08:42:41.165Z,32.10
2019-05-25T08:45:11.404Z,32.83
2019-05-25T08:47:40.869Z,32.82
2019-05-25T08:50:10.545Z,32.27
2019-05-25T08:52:39.941Z,32.39
2019-05-25T08:55:09.607Z,31.38
2019-05-25T08:57:38.997Z,30.58
2019-05-25T09:00:09.961Z,31.12
2019-05-25T09:02:39.433Z,30.90
2019-05-25T09:05:09.624Z,31.02
2019-05-25T09:07:39.046Z,31.35
2019-05-25T09:10:08.962Z,31.07
2019-05-25T09:12:38.410Z,32.12
2019-05-25T09:15:08.197Z,31.92
2019-05-25T09:17:37.594Z,32.04
2019-05-25T09:20:11.194Z,31.92
2019-05-25T09:22:40.687Z,31.37
2019-05-25T09:25:10.837Z,30.70
2019-05-25T09:27:40.223Z,30.37
2019-05-25T09:30:10.382Z,29.96
2019-05-25T09:32:39.831Z,29.73
2019-05-25T09:35:09.814Z,30.85
2019-05-25T09:37:39.269Z,30.77
2019-05-25T09:40:09.434Z,31.49
2019-05-25T09:42:39.244Z,31.49
2019-05-25T09:45:09.605Z,33.64
2019-05-25T09:47:39.012Z,33.73
2019-05-25T09:50:09.166Z,32.88
2019-05-25T09:52:38.553Z,31.06
2019-05-25T09:55:10.351Z,28.56
2019-05-25T09:57:41.833Z,25.50
2019-05-25T10:00:13.476Z,26.57
2019-05-25T10:02:43.477Z,27.15
2019-05-25T10:05:13.861Z,27.41
2019-05-25T10:07:43.246Z,26.73
2019-05-25T10:10:13.400Z,26.94
2019-05-25T10:12:42.860Z,27.02
2019-05-25T10:15:12.802Z,29.42
2019-05-25T10:17:42.224Z,30.18
2019-05-25T10:20:12.267Z,30.82
2019-05-25T10:22:41.673Z,31.87
2019-05-25T10:25:12.870Z,33.41
2019-05-25T10:27:42.336Z,32.65
2019-05-25T10:30:12.770Z,33.24
2019-05-25T10:32:42.514Z,34.66
2019-05-25T10:35:12.600Z,32.29
2019-05-25T10:37:42.078Z,32.92
2019-05-25T10:40:12.225Z,34.46
2019-05-25T10:42:41.652Z,34.16
2019-05-25T10:45:11.588Z,35.21
2019-05-25T10:47:41.134Z,35.23
2019-05-25T10:50:11.493Z,33.34
2019-05-25T10:52:40.913Z,32.86
2019-05-25T10:55:11.035Z,32.43
2019-05-25T10:57:40.724Z,31.37
2019-05-25T11:00:11.767Z,31.46
2019-05-25T11:02:41.182Z,31.91
2019-05-25T11:05:11.519Z,32.16
2019-05-25T11:07:41.015Z,28.90
2019-05-25T11:10:10.868Z,26.14
2019-05-25T11:12:40.345Z,25.01
2019-05-25T11:15:10.692Z,21.49
2019-05-25T11:17:40.117Z,21.04
2019-05-25T11:20:11.945Z,20.73
2019-05-25T11:22:41.404Z,17.54
2019-05-25T11:25:11.941Z,18.35
2019-05-25T11:27:41.367Z,17.81
2019-05-25T11:30:11.515Z,17.27
2019-05-25T11:32:40.929Z,16.49
2019-05-25T11:35:11.053Z,17.97
2019-05-25T11:37:40.478Z,17.97
2019-05-25T11:40:12.438Z,18.58
2019-05-25T11:42:41.855Z,19.91
2019-05-25T11:45:11.902Z,20.48
2019-05-25T11:47:41.293Z,17.97
2019-05-25T11:50:11.866Z,16.48
2019-05-25T11:52:41.297Z,13.42
2019-05-25T11:55:12.651Z,12.93
2019-05-25T11:57:42.032Z,11.76
2019-05-25T12:00:24.488Z,11.39
2019-05-25T12:02:45.625Z,11.40
2019-05-25T12:05:15.772Z,11.56
2019-05-25T12:07:45.277Z,11.64
2019-05-25T12:10:16.645Z,10.40
2019-05-25T12:12:46.075Z,10.97
2019-05-25T12:15:15.933Z,10.69
2019-05-25T12:17:45.332Z,11.73
2019-05-25T12:20:15.401Z,9.71
2019-05-25T12:22:44.832Z,11.52
2019-05-25T12:25:14.489Z,13.35
2019-05-25T12:27:43.897Z,13.56
2019-05-25T12:30:15.361Z,13.29
2019-05-25T12:32:44.763Z,15.09
2019-05-25T12:35:14.256Z,13.64
2019-05-25T12:37:43.654Z,14.92
2019-05-25T12:40:13.411Z,18.05
2019-05-25T12:42:45.820Z,19.19
2019-05-25T12:45:14.575Z,19.71
2019-05-25T12:47:43.963Z,20.44
2019-05-25T12:50:14.003Z,19.39
2019-05-25T12:52:43.394Z,21.28
2019-05-25T12:55:13.343Z,21.67
2019-05-25T12:57:42.731Z,21.54
2019-05-25T13:00:16.135Z,20.37
2019-05-25T13:02:43.556Z,21.57
2019-05-25T13:05:13.118Z,22.67
2019-05-25T13:07:42.511Z,23.15
2019-05-25T13:10:12.315Z,23.07
2019-05-25T13:12:41.714Z,23.07
2019-05-25T13:15:11.263Z,23.01
2019-05-25T13:17:40.680Z,22.72
2019-05-25T13:20:10.725Z,25.37
2019-05-25T13:22:40.124Z,26.46
2019-05-25T13:25:10.492Z,26.66
2019-05-25T13:27:41.167Z,27.09
2019-05-25T13:30:11.292Z,27.25
2019-05-25T13:32:40.702Z,27.03
2019-05-25T13:35:10.566Z,28.01
2019-05-25T13:37:40.009Z,28.05
2019-05-25T13:40:09.960Z,28.08
2019-05-25T13:42:39.357Z,28.08
2019-05-25T13:45:09.415Z,28.06
2019-05-25T13:47:38.811Z,26.75
2019-05-25T13:50:09.264Z,28.28
2019-05-25T13:52:38.685Z,27.59
2019-05-25T13:55:09.711Z,26.37
2019-05-25T13:57:39.470Z,25.45
2019-05-25T14:00:09.536Z,26.03
2019-05-25T14:02:39.265Z,27.46
2019-05-25T14:05:09.219Z,27.66
2019-05-25T14:07:38.658Z,27.67
2019-05-25T14:10:08.577Z,28.14
2019-05-25T14:12:37.971Z,28.26
2019-05-25T14:15:08.474Z,28.94
2019-05-25T14:17:38.131Z,28.49
2019-05-25T14:20:09.291Z,30.30
2019-05-25T14:22:38.691Z,28.97
2019-05-25T14:25:08.653Z,28.94
2019-05-25T14:27:38.130Z,29.34
2019-05-25T14:30:08.601Z,29.73
2019-05-25T14:32:37.993Z,30.22
2019-05-25T14:35:08.056Z,30.69
2019-05-25T14:37:37.458Z,31.06
2019-05-25T14:40:11.417Z,30.53
2019-05-25T14:42:41.209Z,31.43
2019-05-25T14:45:11.849Z,31.66
2019-05-25T14:47:41.350Z,32.22
2019-05-25T14:50:12.276Z,33.25
2019-05-25T14:52:43.474Z,33.47
2019-05-25T14:55:13.319Z,35.19
2019-05-25T14:57:42.738Z,33.56
2019-05-25T15:00:14.232Z,32.16
2019-05-25T15:02:43.639Z,32.51
2019-05-25T15:05:13.373Z,31.15
2019-05-25T15:07:42.853Z,30.72
2019-05-25T15:10:12.506Z,31.81
2019-05-25T15:12:41.925Z,31.62
2019-05-25T15:15:12.164Z,31.74
2019-05-25T15:17:43.247Z,32.59
2019-05-25T15:20:14.361Z,32.33
2019-05-25T15:22:46.913Z,33.14
2019-05-25T15:25:16.409Z,31.88
2019-05-25T15:27:45.815Z,32.61
2019-05-25T15:30:15.654Z,32.47
2019-05-25T15:32:45.091Z,32.44
2019-05-25T15:35:15.829Z,32.16
2019-05-25T15:37:45.278Z,31.88
2019-05-25T15:40:16.112Z,32.99
2019-05-25T15:42:45.526Z,32.65
2019-05-25T15:45:15.769Z,32.17
2019-05-25T15:47:47.078Z,32.09
2019-05-25T15:50:17.284Z,32.68
2019-05-25T15:52:46.699Z,32.63
2019-05-25T15:55:16.846Z,33.04
2019-05-25T15:57:46.261Z,33.66
2019-05-25T16:00:17.769Z,34.40
2019-05-25T16:02:47.463Z,34.36
2019-05-25T16:05:17.146Z,34.95
2019-05-25T16:07:49.950Z,35.04
2019-05-25T16:10:19.418Z,35.23
2019-05-25T16:12:50.413Z,33.01
2019-05-25T16:15:27.537Z,33.44
2019-05-25T16:17:57.082Z,33.51
2019-05-25T16:20:26.483Z,33.93
2019-05-25T16:22:55.890Z,34.16
2019-05-25T16:25:25.546Z,34.95
2019-05-25T16:27:54.956Z,35.31
2019-05-25T16:30:24.591Z,34.77
2019-05-25T16:33:11.648Z,36.20
2019-05-25T16:35:25.104Z,35.49
2019-05-25T16:37:54.716Z,36.06
2019-05-25T16:40:24.270Z,36.04
2019-05-25T16:42:53.710Z,36.74
2019-05-25T16:45:23.110Z,37.85
2019-05-25T16:47:52.609Z,39.11
2019-05-25T16:50:21.997Z,37.19
2019-05-25T16:52:51.488Z,37.49
2019-05-25T16:55:20.994Z,35.86
2019-05-25T16:57:50.418Z,35.60
2019-05-25T17:00:27.835Z,34.92
2019-05-25T17:02:58.988Z,35.58
2019-05-25T17:05:29.139Z,36.35
2019-05-25T17:07:58.554Z,35.93
2019-05-25T17:10:28.372Z,35.83
2019-05-25T17:12:57.815Z,35.80
2019-05-25T17:15:27.306Z,35.20
2019-05-25T17:17:56.695Z,35.30
2019-05-25T17:20:26.358Z,35.94
2019-05-25T17:22:55.761Z,35.22
2019-05-25T17:25:25.208Z,34.68
2019-05-25T17:27:54.592Z,34.80
2019-05-25T17:30:44.803Z,35.27
2019-05-25T17:33:15.131Z,34.42
2019-05-25T17:35:45.485Z,35.08
2019-05-25T17:38:14.956Z,34.44
2019-05-25T17:40:44.370Z,34.76
2019-05-25T17:43:13.863Z,34.64
2019-05-25T17:45:43.282Z,35.18
2019-05-25T17:48:12.683Z,34.17
2019-05-25T17:50:42.092Z,34.97
2019-05-25T17:53:11.560Z,35.04
2019-05-25T17:55:40.976Z,35.74
2019-05-25T17:58:10.459Z,35.68
2019-05-25T18:00:46.509Z,36.25
2019-05-25T18:03:15.933Z,36.20
2019-05-25T18:05:46.199Z,36.70
2019-05-25T18:08:15.817Z,37.28
2019-05-25T18:10:54.306Z,37.82
2019-05-25T18:13:16.393Z,38.54
2019-05-25T18:15:45.808Z,39.12
2019-05-25T18:18:15.204Z,39.11
2019-05-25T18:20:44.831Z,39.69
2019-05-25T18:23:14.217Z,40.52
2019-05-25T18:25:43.641Z,40.50
2019-05-25T18:28:13.038Z,40.57
2019-05-25T18:30:42.456Z,40.94
2019-05-25T18:33:11.849Z,41.31
2019-05-25T18:35:41.347Z,41.71
2019-05-25T18:38:10.747Z,42.24
2019-05-25T18:40:40.210Z,42.40
2019-05-25T18:43:09.622Z,42.90
2019-05-25T18:45:39.072Z,43.41
2019-05-25T18:48:08.468Z,43.60
2019-05-25T18:50:37.882Z,43.64
2019-05-25T18:53:07.282Z,43.37
2019-05-25T18:55:36.699Z,43.81
2019-05-25T18:58:06.168Z,44.11
2019-05-25T19:00:35.600Z,44.29
2019-05-25T19:03:05.433Z,44.68
2019-05-25T19:05:34.896Z,44.68
2019-05-25T19:08:04.465Z,44.89
2019-05-25T19:10:33.891Z,44.64
2019-05-25T19:13:03.380Z,44.78
2019-05-25T19:15:32.811Z,45.19
2019-05-25T19:18:02.298Z,45.47
2019-05-25T19:20:31.814Z,45.70
2019-05-25T19:23:01.211Z,45.90
2019-05-25T19:25:30.644Z,45.81
2019-05-25T19:28:00.034Z,46.09
2019-05-25T19:30:29.520Z,46.66
2019-05-25T19:32:58.986Z,47.59
2019-05-25T19:35:28.395Z,48.25
2019-05-25T19:37:57.814Z,49.66
2019-05-25T19:40:27.337Z,50.36
2019-05-25T19:42:56.731Z,49.90
2019-05-25T19:45:26.125Z,51.89
2019-05-25T19:47:55.544Z,52.87
2019-05-25T19:50:25.612Z,52.95
2019-05-25T19:52:55.018Z,54.07
2019-05-25T19:55:24.488Z,54.53
2019-05-25T19:57:53.912Z,54.18
2019-05-25T20:00:23.530Z,54.83
2019-05-25T20:02:52.950Z,55.01
2019-05-25T20:05:22.342Z,54.88
2019-05-25T20:07:51.768Z,55.19
2019-05-25T20:10:21.419Z,55.49
2019-05-25T20:12:50.838Z,55.42
2019-05-25T20:15:20.472Z,55.15
2019-05-25T20:17:49.903Z,55.52
2019-05-25T20:20:19.433Z,55.67
2019-05-25T20:22:48.851Z,56.00
2019-05-25T20:25:18.321Z,57.08
2019-05-25T20:27:48.521Z,57.25
2019-05-25T20:30:18.668Z,56.94
2019-05-25T20:32:48.092Z,57.70
2019-05-25T20:35:31.737Z,57.84
2019-05-25T20:37:49.269Z,58.80
2019-05-25T20:40:18.737Z,59.26
2019-05-25T20:42:48.155Z,59.47
2019-05-25T20:45:18.615Z,60.33
2019-05-25T20:47:48.035Z,60.35
2019-05-25T20:50:17.493Z,60.50
2019-05-25T20:52:46.954Z,60.79
2019-05-25T20:55:16.352Z,61.07
2019-05-25T20:57:45.756Z,61.12
2019-05-25T21:00:15.489Z,61.40
2019-05-25T21:02:44.918Z,61.52
2019-05-25T21:05:14.545Z,62.08
2019-05-25T21:07:43.947Z,62.54
2019-05-25T21:10:14.300Z,62.39
2019-05-25T21:12:43.689Z,62.02
2019-05-25T21:15:13.445Z,62.88
2019-05-25T21:17:42.854Z,62.83
2019-05-25T21:20:13.562Z,62.07
2019-05-25T21:22:42.963Z,61.74
2019-05-25T21:25:12.737Z,62.47
2019-05-25T21:27:42.205Z,62.69
2019-05-25T21:30:12.073Z,63.23
2019-05-25T21:32:41.477Z,63.89
2019-05-25T21:35:11.205Z,64.18
2019-05-25T21:37:40.604Z,64.37
2019-05-25T21:40:10.551Z,64.25
2019-05-25T21:42:39.947Z,64.70
2019-05-25T21:45:09.532Z,65.06
2019-05-25T21:47:38.933Z,65.41
2019-05-25T21:50:09.112Z,65.77
2019-05-25T21:52:38.526Z,65.86
2019-05-25T21:55:08.369Z,66.07
2019-05-25T21:57:37.761Z,65.85
2019-05-25T22:00:11.373Z,65.96
2019-05-25T22:02:40.903Z,66.04
2019-05-25T22:05:10.764Z,65.79
2019-05-25T22:07:40.158Z,66.18
2019-05-25T22:10:11.104Z,66.39
2019-05-25T22:12:40.747Z,66.93
2019-05-25T22:15:12.102Z,67.23
2019-05-25T22:17:41.503Z,67.16
2019-05-25T22:20:11.811Z,67.24
2019-05-25T22:22:41.241Z,67.72
2019-05-25T22:25:11.408Z,67.96
2019-05-25T22:27:40.905Z,68.12
2019-05-25T22:30:11.769Z,68.75
2019-05-25T22:32:41.171Z,69.63
2019-05-25T22:35:10.832Z,69.72
2019-05-25T22:37:40.231Z,69.82
2019-05-25T22:40:10.082Z,69.88
2019-05-25T22:42:39.470Z,69.72
2019-05-25T22:45:09.328Z,69.77
2019-05-25T22:47:38.731Z,69.96
2019-05-25T22:50:09.391Z,70.48
2019-05-25T22:52:38.786Z,70.39
2019-05-25T22:55:09.174Z,70.47
2019-05-25T22:57:38.547Z,70.50
2019-05-25T23:00:10.172Z,70.81
2019-05-25T23:02:39.760Z,71.05
2019-05-25T23:05:09.625Z,70.93
2019-05-25T23:07:39.022Z,71.16
2019-05-25T23:10:09.817Z,71.17
2019-05-25T23:12:39.268Z,71.17
2019-05-25T23:15:09.919Z,71.30
2019-05-25T23:17:39.387Z,71.51
2019-05-25T23:20:09.407Z,72.01
2019-05-25T23:22:38.811Z,72.24
2019-05-25T23:25:08.553Z,72.44
2019-05-25T23:27:37.951Z,72.45
2019-05-25T23:30:08.348Z,72.31
2019-05-25T23:32:37.866Z,72.10
2019-05-25T23:35:07.717Z,72.13
2019-05-25T23:37:37.110Z,71.86
2019-05-25T23:40:08.240Z,71.71
2019-05-25T23:42:37.629Z,71.80
2019-05-25T23:45:07.682Z,71.62
2019-05-25T23:47:37.078Z,71.78
2019-05-25T23:50:07.317Z,72.12
2019-05-25T23:52:36.935Z,72.36
2019-05-25T23:55:06.883Z,72.12
2019-05-25T23:57:36.272Z,71.64
